Christina O — C6FN7 — position and weather

sailwx.info

Track history (hours):
 
Tides and Currents Weather Stations Pressure Air Temp Water Temp Dewpoint Dewpoint Depression Visibility Wind Speed Wind Dir Waves Ship Positions

Christina O

Operator: V Ships Leisure SAM

Last reported at 2015-Feb-25 12:09 UTC. Time now 2015-Mar-04 18:57 UTC.
Position N 16°18' E 108°13'.

Length 186 m; draft 6.1 m.

Type: Ship. MMSI: 308322000.

Date/timePositionNaut miles runAvg speedWind from/ knotsBaromVisibWave heightAir tempDewpointWater temp
2015-Feb-25 12:09N 16°18' E 108°13'813.7
2015-Feb-25 11:33N 16°21' E 108°05'5 0.4
2015-Feb-25 00:14N 16°22' E 108°01'1614.5
2015-Feb-24 23:07N 16°34' E 108°12'48115.7
2015-Feb-23 16:31N 22°03' E 114°24'1212.3
2015-Feb-23 15:33N 22°13' E 114°18'9 8.6
2015-Feb-23 14:33N 22°17' E 114°10'0 0.3
2015-Feb-23 13:32N 22°18' E 114°10'0 0.0
2015-Feb-23 12:29N 22°18' E 114°10'0 0.0
2015-Feb-23 11:29N 22°18' E 114°10'0 0.0
2015-Feb-23 10:29N 22°18' E 114°10'0 0.0
2015-Feb-23 09:32N 22°18' E 114°10'0 0.0
2015-Feb-23 08:32N 22°18' E 114°10'0 0.0
2015-Feb-23 07:32N 22°18' E 114°10'0 0.0
2015-Feb-23 06:32N 22°18' E 114°10'0 0.0
2015-Feb-23 05:32N 22°18' E 114°10'0 0.0
2015-Feb-23 04:32N 22°18' E 114°10'0 0.0
2015-Feb-23 03:32N 22°18' E 114°10'0 0.0
2015-Feb-23 02:32N 22°18' E 114°10'0 0.0
2015-Feb-23 01:31N 22°18' E 114°10'0 0.0
2015-Feb-23 00:31N 22°18' E 114°10'0 0.0
2015-Feb-22 23:31N 22°18' E 114°10'0 0.0
2015-Feb-22 22:31N 22°18' E 114°10'0 0.0
2015-Feb-22 21:31N 22°18' E 114°10'0 0.0
2015-Feb-22 20:31N 22°18' E 114°10'0 0.0
2015-Feb-22 19:31N 22°18' E 114°10'0 0.0
2015-Feb-22 18:31N 22°18' E 114°10'0 0.0
2015-Feb-22 17:31N 22°18' E 114°10'0 0.0
2015-Feb-22 16:31N 22°18' E 114°10'0 0.0
2015-Feb-22 15:28N 22°18' E 114°10'0 0.0
2015-Feb-22 14:31N 22°18' E 114°10'0 0.0
2015-Feb-22 13:31N 22°18' E 114°10'0 0.0
2015-Feb-22 12:31N 22°18' E 114°10'0 0.0
2015-Feb-22 11:31N 22°18' E 114°10'0 0.0
2015-Feb-22 10:31N 22°18' E 114°10'0 0.0
2015-Feb-22 09:31N 22°18' E 114°10'0 0.0
2015-Feb-22 08:31N 22°18' E 114°10'0 0.0
2015-Feb-22 07:31N 22°18' E 114°10'0 0.0
2015-Feb-22 06:31N 22°18' E 114°10'0 0.0
2015-Feb-22 05:31N 22°18' E 114°10'0 0.0
2015-Feb-22 04:31N 22°18' E 114°10'0 0.0
2015-Feb-22 03:31N 22°18' E 114°10'0 0.0
2015-Feb-22 01:32N 22°18' E 114°10'0 0.1
2015-Feb-22 00:33N 22°18' E 114°10'6 5.6
2015-Feb-21 23:33N 22°16' E 114°16'1212.0
2015-Feb-21 22:33N 22°07' E 114°24'25616.0
2015-Feb-21 06:33N 20°10' E 110°20'8 8.2
2015-Feb-21 05:33N 20°02' E 110°17'0 0.1
2015-Feb-21 04:33N 20°02' E 110°17'0 0.0
2015-Feb-21 03:27N 20°02' E 110°17'0 0.0
2015-Feb-21 02:33N 20°02' E 110°17'0 0.0
2015-Feb-21 01:33N 20°02' E 110°17'0 0.0
2015-Feb-21 00:29N 20°02' E 110°17'5 5.9
2015-Feb-20 23:33N 20°08' E 110°15'9 9.2
2015-Feb-20 22:33N 20°13' E 110°23'  
Track history (hours):
 
Tides and Currents Weather Stations Pressure Air Temp Water Temp Dewpoint Dewpoint Depression Visibility Wind Speed Wind Dir Waves Ship Positions

Christina O

Operator: V Ships Leisure SAM

Last reported at 2015-Feb-25 12:09 UTC. Time now 2015-Mar-04 18:57 UTC.
Position N 16°18' E 108°13'.

Length 186 m; draft 6.1 m.

Type: Ship. MMSI: 308322000.

Date/timePositionNaut miles runAvg speedWind from/ knotsBaromVisibWave heightAir tempDewpointWater temp
2015-Feb-25 12:09N 16°18' E 108°13'813.7
2015-Feb-25 11:33N 16°21' E 108°05'5 0.4
2015-Feb-25 00:14N 16°22' E 108°01'1614.5
2015-Feb-24 23:07N 16°34' E 108°12'48115.7
2015-Feb-23 16:31N 22°03' E 114°24'1212.3
2015-Feb-23 15:33N 22°13' E 114°18'9 8.6
2015-Feb-23 14:33N 22°17' E 114°10'0 0.3
2015-Feb-23 13:32N 22°18' E 114°10'0 0.0
2015-Feb-23 12:29N 22°18' E 114°10'0 0.0
2015-Feb-23 11:29N 22°18' E 114°10'0 0.0
2015-Feb-23 10:29N 22°18' E 114°10'0 0.0
2015-Feb-23 09:32N 22°18' E 114°10'0 0.0
2015-Feb-23 08:32N 22°18' E 114°10'0 0.0
2015-Feb-23 07:32N 22°18' E 114°10'0 0.0
2015-Feb-23 06:32N 22°18' E 114°10'0 0.0
2015-Feb-23 05:32N 22°18' E 114°10'0 0.0
2015-Feb-23 04:32N 22°18' E 114°10'0 0.0
2015-Feb-23 03:32N 22°18' E 114°10'0 0.0
2015-Feb-23 02:32N 22°18' E 114°10'0 0.0
2015-Feb-23 01:31N 22°18' E 114°10'0 0.0
2015-Feb-23 00:31N 22°18' E 114°10'0 0.0
2015-Feb-22 23:31N 22°18' E 114°10'0 0.0
2015-Feb-22 22:31N 22°18' E 114°10'0 0.0
2015-Feb-22 21:31N 22°18' E 114°10'0 0.0
2015-Feb-22 20:31N 22°18' E 114°10'0 0.0
2015-Feb-22 19:31N 22°18' E 114°10'0 0.0
2015-Feb-22 18:31N 22°18' E 114°10'0 0.0
2015-Feb-22 17:31N 22°18' E 114°10'0 0.0
2015-Feb-22 16:31N 22°18' E 114°10'0 0.0
2015-Feb-22 15:28N 22°18' E 114°10'0 0.0
2015-Feb-22 14:31N 22°18' E 114°10'0 0.0
2015-Feb-22 13:31N 22°18' E 114°10'0 0.0
2015-Feb-22 12:31N 22°18' E 114°10'0 0.0
2015-Feb-22 11:31N 22°18' E 114°10'0 0.0
2015-Feb-22 10:31N 22°18' E 114°10'0 0.0
2015-Feb-22 09:31N 22°18' E 114°10'0 0.0
2015-Feb-22 08:31N 22°18' E 114°10'0 0.0
2015-Feb-22 07:31N 22°18' E 114°10'0 0.0
2015-Feb-22 06:31N 22°18' E 114°10'0 0.0
2015-Feb-22 05:31N 22°18' E 114°10'0 0.0
2015-Feb-22 04:31N 22°18' E 114°10'0 0.0
2015-Feb-22 03:31N 22°18' E 114°10'0 0.0
2015-Feb-22 01:32N 22°18' E 114°10'0 0.1
2015-Feb-22 00:33N 22°18' E 114°10'6 5.6
2015-Feb-21 23:33N 22°16' E 114°16'1212.0
2015-Feb-21 22:33N 22°07' E 114°24'25616.0
2015-Feb-21 06:33N 20°10' E 110°20'8 8.2
2015-Feb-21 05:33N 20°02' E 110°17'0 0.1
2015-Feb-21 04:33N 20°02' E 110°17'0 0.0
2015-Feb-21 03:27N 20°02' E 110°17'0 0.0
2015-Feb-21 02:33N 20°02' E 110°17'0 0.0
2015-Feb-21 01:33N 20°02' E 110°17'0 0.0
2015-Feb-21 00:29N 20°02' E 110°17'5 5.9
2015-Feb-20 23:33N 20°08' E 110°15'9 9.2
2015-Feb-20 22:33N 20°13' E 110°23'  

Dump ship's entire track history